sensor_id;sensor_type;location;lat;lon;timestamp;P1;durP1;ratioP1;P2;durP2;ratioP2
6135;SDS011;24008;42.664;23.372;2022-07-09T00:00:37;18.63;;;13.77;;
6135;SDS011;24008;42.664;23.372;2022-07-09T00:03:06;16.33;;;13.07;;
6135;SDS011;24008;42.664;23.372;2022-07-09T00:05:32;18.63;;;14.50;;
6135;SDS011;24008;42.664;23.372;2022-07-09T00:07:59;16.47;;;14.53;;
6135;SDS011;24008;42.664;23.372;2022-07-09T00:10:26;19.90;;;15.47;;
6135;SDS011;24008;42.664;23.372;2022-07-09T00:12:53;21.67;;;16.33;;
6135;SDS011;24008;42.664;23.372;2022-07-09T00:15:20;21.70;;;17.87;;
6135;SDS011;24008;42.664;23.372;2022-07-09T00:17:47;24.23;;;19.00;;
6135;SDS011;24008;42.664;23.372;2022-07-09T00:20:15;27.17;;;21.10;;
6135;SDS011;24008;42.664;23.372;2022-07-09T00:22:42;29.20;;;22.37;;
6135;SDS011;24008;42.664;23.372;2022-07-09T00:25:09;32.43;;;23.73;;
6135;SDS011;24008;42.664;23.372;2022-07-09T00:27:36;33.03;;;24.43;;
6135;SDS011;24008;42.664;23.372;2022-07-09T00:30:03;33.47;;;26.43;;
6135;SDS011;24008;42.664;23.372;2022-07-09T00:32:30;32.83;;;24.70;;
6135;SDS011;24008;42.664;23.372;2022-07-09T00:34:57;30.70;;;22.40;;
6135;SDS011;24008;42.664;23.372;2022-07-09T00:37:25;24.60;;;19.47;;
6135;SDS011;24008;42.664;23.372;2022-07-09T00:39:52;22.07;;;17.77;;
6135;SDS011;24008;42.664;23.372;2022-07-09T00:42:19;20.63;;;17.27;;
6135;SDS011;24008;42.664;23.372;2022-07-09T00:44:46;19.60;;;16.30;;
6135;SDS011;24008;42.664;23.372;2022-07-09T00:47:13;15.13;;;13.27;;
6135;SDS011;24008;42.664;23.372;2022-07-09T00:49:40;16.67;;;13.57;;
6135;SDS011;24008;42.664;23.372;2022-07-09T00:52:09;15.90;;;13.10;;
6135;SDS011;24008;42.664;23.372;2022-07-09T00:54:39;19.97;;;14.63;;
6135;SDS011;24008;42.664;23.372;2022-07-09T00:57:08;17.27;;;14.23;;
6135;SDS011;24008;42.664;23.372;2022-07-09T00:59:36;19.13;;;14.80;;
6135;SDS011;24008;42.664;23.372;2022-07-09T01:02:05;18.93;;;15.87;;
6135;SDS011;24008;42.664;23.372;2022-07-09T01:04:33;19.10;;;14.87;;
6135;SDS011;24008;42.664;23.372;2022-07-09T01:07:02;19.30;;;14.80;;
6135;SDS011;24008;42.664;23.372;2022-07-09T01:09:29;15.40;;;12.70;;
6135;SDS011;24008;42.664;23.372;2022-07-09T01:11:57;15.67;;;12.33;;
6135;SDS011;24008;42.664;23.372;2022-07-09T01:14:24;14.47;;;11.80;;
6135;SDS011;24008;42.664;23.372;2022-07-09T01:17:01;13.23;;;11.33;;
6135;SDS011;24008;42.664;23.372;2022-07-09T01:19:30;13.10;;;11.50;;
6135;SDS011;24008;42.664;23.372;2022-07-09T01:21:59;14.03;;;11.30;;
6135;SDS011;24008;42.664;23.372;2022-07-09T01:24:27;13.20;;;11.80;;
6135;SDS011;24008;42.664;23.372;2022-07-09T01:26:54;15.03;;;10.97;;
6135;SDS011;24008;42.664;23.372;2022-07-09T01:29:21;13.80;;;10.77;;
6135;SDS011;24008;42.664;23.372;2022-07-09T01:31:49;11.70;;;10.50;;
6135;SDS011;24008;42.664;23.372;2022-07-09T01:34:15;13.10;;;10.67;;
6135;SDS011;24008;42.664;23.372;2022-07-09T01:36:43;14.00;;;11.40;;
6135;SDS011;24008;42.664;23.372;2022-07-09T01:39:11;12.87;;;11.40;;
6135;SDS011;24008;42.664;23.372;2022-07-09T01:41:38;11.23;;;10.03;;
6135;SDS011;24008;42.664;23.372;2022-07-09T01:44:04;16.47;;;11.03;;
6135;SDS011;24008;42.664;23.372;2022-07-09T01:46:32;11.60;;;10.37;;
6135;SDS011;24008;42.664;23.372;2022-07-09T01:48:59;13.67;;;10.13;;
6135;SDS011;24008;42.664;23.372;2022-07-09T01:51:26;14.03;;;10.13;;
6135;SDS011;24008;42.664;23.372;2022-07-09T01:53:53;14.70;;;9.93;;
6135;SDS011;24008;42.664;23.372;2022-07-09T01:56:21;12.43;;;10.10;;
6135;SDS011;24008;42.664;23.372;2022-07-09T01:58:48;11.63;;;9.70;;
6135;SDS011;24008;42.664;23.372;2022-07-09T02:01:15;12.43;;;9.97;;
6135;SDS011;24008;42.664;23.372;2022-07-09T02:03:42;10.73;;;9.57;;
6135;SDS011;24008;42.664;23.372;2022-07-09T02:06:09;12.07;;;9.57;;
6135;SDS011;24008;42.664;23.372;2022-07-09T02:08:35;11.10;;;9.60;;
6135;SDS011;24008;42.664;23.372;2022-07-09T02:11:04;10.93;;;9.60;;
6135;SDS011;24008;42.664;23.372;2022-07-09T02:13:33;12.73;;;9.63;;
6135;SDS011;24008;42.664;23.372;2022-07-09T02:16:00;11.27;;;9.40;;
6135;SDS011;24008;42.664;23.372;2022-07-09T02:18:27;10.57;;;9.47;;
6135;SDS011;24008;42.664;23.372;2022-07-09T02:20:54;12.80;;;9.40;;
6135;SDS011;24008;42.664;23.372;2022-07-09T02:23:21;11.23;;;9.80;;
6135;SDS011;24008;42.664;23.372;2022-07-09T02:25:48;10.60;;;9.33;;
6135;SDS011;24008;42.664;23.372;2022-07-09T02:28:15;10.57;;;9.07;;
6135;SDS011;24008;42.664;23.372;2022-07-09T02:30:43;10.27;;;9.17;;
6135;SDS011;24008;42.664;23.372;2022-07-09T02:33:10;10.00;;;8.90;;
6135;SDS011;24008;42.664;23.372;2022-07-09T02:35:37;10.83;;;9.47;;
6135;SDS011;24008;42.664;23.372;2022-07-09T02:38:04;19.33;;;15.67;;
6135;SDS011;24008;42.664;23.372;2022-07-09T02:40:31;10.00;;;8.83;;
6135;SDS011;24008;42.664;23.372;2022-07-09T02:42:58;15.37;;;12.83;;
6135;SDS011;24008;42.664;23.372;2022-07-09T02:45:25;10.40;;;9.23;;
6135;SDS011;24008;42.664;23.372;2022-07-09T02:47:53;9.67;;;8.73;;
6135;SDS011;24008;42.664;23.372;2022-07-09T02:50:20;12.10;;;10.00;;
6135;SDS011;24008;42.664;23.372;2022-07-09T02:52:47;10.60;;;9.10;;
6135;SDS011;24008;42.664;23.372;2022-07-09T02:55:14;9.83;;;8.83;;
6135;SDS011;24008;42.664;23.372;2022-07-09T02:57:40;10.80;;;9.53;;
6135;SDS011;24008;42.664;23.372;2022-07-09T03:00:07;9.40;;;8.43;;
6135;SDS011;24008;42.664;23.372;2022-07-09T03:02:35;12.60;;;9.77;;
6135;SDS011;24008;42.664;23.372;2022-07-09T03:05:03;12.33;;;9.43;;
6135;SDS011;24008;42.664;23.372;2022-07-09T03:07:31;10.43;;;9.30;;
6135;SDS011;24008;42.664;23.372;2022-07-09T03:09:58;10.90;;;9.67;;
6135;SDS011;24008;42.664;23.372;2022-07-09T03:12:25;9.73;;;8.73;;
6135;SDS011;24008;42.664;23.372;2022-07-09T03:14:52;10.97;;;9.10;;
6135;SDS011;24008;42.664;23.372;2022-07-09T03:17:18;11.83;;;9.10;;
6135;SDS011;24008;42.664;23.372;2022-07-09T03:19:45;10.50;;;9.40;;
6135;SDS011;24008;42.664;23.372;2022-07-09T03:22:14;9.60;;;8.60;;
6135;SDS011;24008;42.664;23.372;2022-07-09T03:24:40;10.50;;;9.07;;
6135;SDS011;24008;42.664;23.372;2022-07-09T03:27:07;9.90;;;8.90;;
6135;SDS011;24008;42.664;23.372;2022-07-09T03:29:34;10.30;;;9.20;;
6135;SDS011;24008;42.664;23.372;2022-07-09T03:32:01;13.33;;;9.37;;
6135;SDS011;24008;42.664;23.372;2022-07-09T03:34:29;11.20;;;9.77;;
6135;SDS011;24008;42.664;23.372;2022-07-09T03:36:55;10.80;;;9.13;;
6135;SDS011;24008;42.664;23.372;2022-07-09T03:39:24;10.37;;;9.20;;
6135;SDS011;24008;42.664;23.372;2022-07-09T03:41:51;12.80;;;8.70;;
6135;SDS011;24008;42.664;23.372;2022-07-09T03:44:18;9.87;;;8.87;;
6135;SDS011;24008;42.664;23.372;2022-07-09T03:46:44;10.17;;;9.17;;
6135;SDS011;24008;42.664;23.372;2022-07-09T03:49:11;10.67;;;9.17;;
6135;SDS011;24008;42.664;23.372;2022-07-09T03:51:38;11.70;;;9.07;;
6135;SDS011;24008;42.664;23.372;2022-07-09T03:54:05;11.90;;;8.97;;
6135;SDS011;24008;42.664;23.372;2022-07-09T03:56:33;10.67;;;9.53;;
6135;SDS011;24008;42.664;23.372;2022-07-09T03:59:00;10.87;;;8.83;;
6135;SDS011;24008;42.664;23.372;2022-07-09T04:01:27;9.73;;;8.80;;
6135;SDS011;24008;42.664;23.372;2022-07-09T04:03:54;11.07;;;9.13;;
6135;SDS011;24008;42.664;23.372;2022-07-09T04:06:21;10.87;;;9.73;;
6135;SDS011;24008;42.664;23.372;2022-07-09T04:08:48;10.47;;;9.37;;
6135;SDS011;24008;42.664;23.372;2022-07-09T04:11:15;10.23;;;8.57;;
6135;SDS011;24008;42.664;23.372;2022-07-09T04:13:43;11.30;;;9.07;;
6135;SDS011;24008;42.664;23.372;2022-07-09T04:16:10;9.80;;;8.80;;
6135;SDS011;24008;42.664;23.372;2022-07-09T04:18:37;10.00;;;9.00;;
6135;SDS011;24008;42.664;23.372;2022-07-09T04:21:07;11.30;;;10.00;;
6135;SDS011;24008;42.664;23.372;2022-07-09T04:23:34;10.27;;;8.97;;
6135;SDS011;24008;42.664;23.372;2022-07-09T04:26:01;12.10;;;10.57;;
6135;SDS011;24008;42.664;23.372;2022-07-09T04:28:29;12.77;;;10.10;;
6135;SDS011;24008;42.664;23.372;2022-07-09T04:30:57;12.57;;;10.17;;
6135;SDS011;24008;42.664;23.372;2022-07-09T04:33:24;11.20;;;10.00;;
6135;SDS011;24008;42.664;23.372;2022-07-09T04:35:52;12.83;;;11.53;;
6135;SDS011;24008;42.664;23.372;2022-07-09T04:38:19;14.17;;;10.97;;
6135;SDS011;24008;42.664;23.372;2022-07-09T04:40:45;15.20;;;11.40;;
6135;SDS011;24008;42.664;23.372;2022-07-09T04:43:12;13.43;;;11.93;;
6135;SDS011;24008;42.664;23.372;2022-07-09T04:45:39;16.93;;;11.77;;
6135;SDS011;24008;42.664;23.372;2022-07-09T04:48:08;12.13;;;10.93;;
6135;SDS011;24008;42.664;23.372;2022-07-09T04:50:35;14.87;;;11.73;;
6135;SDS011;24008;42.664;23.372;2022-07-09T04:53:01;16.27;;;13.07;;
6135;SDS011;24008;42.664;23.372;2022-07-09T04:55:28;12.90;;;11.43;;
6135;SDS011;24008;42.664;23.372;2022-07-09T04:57:56;12.73;;;10.23;;
6135;SDS011;24008;42.664;23.372;2022-07-09T05:00:23;12.67;;;10.30;;
6135;SDS011;24008;42.664;23.372;2022-07-09T05:02:49;10.70;;;9.60;;
6135;SDS011;24008;42.664;23.372;2022-07-09T05:05:18;11.13;;;9.60;;
6135;SDS011;24008;42.664;23.372;2022-07-09T05:07:47;13.60;;;9.97;;
6135;SDS011;24008;42.664;23.372;2022-07-09T05:10:14;10.50;;;9.33;;
6135;SDS011;24008;42.664;23.372;2022-07-09T05:12:41;11.37;;;9.93;;
6135;SDS011;24008;42.664;23.372;2022-07-09T05:15:08;9.63;;;8.60;;
6135;SDS011;24008;42.664;23.372;2022-07-09T05:17:36;10.43;;;8.70;;
6135;SDS011;24008;42.664;23.372;2022-07-09T05:20:04;11.13;;;9.57;;
6135;SDS011;24008;42.664;23.372;2022-07-09T05:22:35;18.20;;;15.37;;
6135;SDS011;24008;42.664;23.372;2022-07-09T05:25:03;11.40;;;8.97;;
6135;SDS011;24008;42.664;23.372;2022-07-09T05:27:31;11.03;;;9.80;;
6135;SDS011;24008;42.664;23.372;2022-07-09T05:29:58;10.77;;;9.50;;
6135;SDS011;24008;42.664;23.372;2022-07-09T05:32:25;9.67;;;8.47;;
6135;SDS011;24008;42.664;23.372;2022-07-09T05:34:52;11.57;;;8.83;;
6135;SDS011;24008;42.664;23.372;2022-07-09T05:37:19;11.80;;;10.20;;
6135;SDS011;24008;42.664;23.372;2022-07-09T05:39:47;10.07;;;8.73;;
6135;SDS011;24008;42.664;23.372;2022-07-09T05:42:14;9.83;;;8.17;;
6135;SDS011;24008;42.664;23.372;2022-07-09T05:44:41;22.00;;;17.37;;
6135;SDS011;24008;42.664;23.372;2022-07-09T05:47:08;9.83;;;8.83;;
6135;SDS011;24008;42.664;23.372;2022-07-09T05:49:35;12.50;;;10.00;;
6135;SDS011;24008;42.664;23.372;2022-07-09T05:52:02;9.70;;;8.70;;
6135;SDS011;24008;42.664;23.372;2022-07-09T05:54:29;8.03;;;7.23;;
6135;SDS011;24008;42.664;23.372;2022-07-09T05:56:57;8.53;;;7.13;;
6135;SDS011;24008;42.664;23.372;2022-07-09T05:59:24;7.93;;;7.13;;
6135;SDS011;24008;42.664;23.372;2022-07-09T06:01:51;7.73;;;7.00;;
6135;SDS011;24008;42.664;23.372;2022-07-09T06:04:18;9.10;;;7.80;;
6135;SDS011;24008;42.664;23.372;2022-07-09T06:06:45;8.73;;;7.00;;
6135;SDS011;24008;42.664;23.372;2022-07-09T06:09:12;11.70;;;9.40;;
6135;SDS011;24008;42.664;23.372;2022-07-09T06:11:39;7.83;;;6.87;;
6135;SDS011;24008;42.664;23.372;2022-07-09T06:14:07;13.93;;;10.93;;
6135;SDS011;24008;42.664;23.372;2022-07-09T06:16:34;13.70;;;10.43;;
6135;SDS011;24008;42.664;23.372;2022-07-09T06:19:01;7.20;;;6.50;;
6135;SDS011;24008;42.664;23.372;2022-07-09T06:21:27;7.90;;;6.80;;
6135;SDS011;24008;42.664;23.372;2022-07-09T06:23:54;7.77;;;6.97;;
6135;SDS011;24008;42.664;23.372;2022-07-09T06:26:21;12.30;;;10.50;;
6135;SDS011;24008;42.664;23.372;2022-07-09T06:28:48;26.73;;;20.50;;
6135;SDS011;24008;42.664;23.372;2022-07-09T06:31:16;13.67;;;11.20;;
6135;SDS011;24008;42.664;23.372;2022-07-09T06:33:43;9.67;;;7.63;;
6135;SDS011;24008;42.664;23.372;2022-07-09T06:36:10;8.33;;;7.47;;
6135;SDS011;24008;42.664;23.372;2022-07-09T06:38:37;11.30;;;8.57;;
6135;SDS011;24008;42.664;23.372;2022-07-09T06:41:18;8.43;;;7.63;;
6135;SDS011;24008;42.664;23.372;2022-07-09T06:43:45;8.60;;;7.70;;
6135;SDS011;24008;42.664;23.372;2022-07-09T06:46:12;9.60;;;7.87;;
6135;SDS011;24008;42.664;23.372;2022-07-09T06:48:41;8.83;;;7.93;;
6135;SDS011;24008;42.664;23.372;2022-07-09T06:51:08;11.33;;;7.70;;
6135;SDS011;24008;42.664;23.372;2022-07-09T06:53:35;11.47;;;9.50;;
6135;SDS011;24008;42.664;23.372;2022-07-09T06:56:02;15.57;;;12.10;;
6135;SDS011;24008;42.664;23.372;2022-07-09T06:58:29;10.43;;;9.23;;
6135;SDS011;24008;42.664;23.372;2022-07-09T07:00:56;9.00;;;7.97;;
6135;SDS011;24008;42.664;23.372;2022-07-09T07:03:23;14.57;;;11.43;;
6135;SDS011;24008;42.664;23.372;2022-07-09T07:05:51;8.07;;;7.27;;
6135;SDS011;24008;42.664;23.372;2022-07-09T07:08:18;10.73;;;9.53;;
6135;SDS011;24008;42.664;23.372;2022-07-09T07:10:45;9.57;;;8.27;;
6135;SDS011;24008;42.664;23.372;2022-07-09T07:13:12;10.70;;;9.03;;
6135;SDS011;24008;42.664;23.372;2022-07-09T07:15:38;10.97;;;7.43;;
6135;SDS011;24008;42.664;23.372;2022-07-09T07:18:05;11.57;;;9.87;;
6135;SDS011;24008;42.664;23.372;2022-07-09T07:20:32;8.90;;;7.47;;
6135;SDS011;24008;42.664;23.372;2022-07-09T07:23:00;8.93;;;8.03;;
6135;SDS011;24008;42.664;23.372;2022-07-09T07:25:27;8.53;;;7.73;;
6135;SDS011;24008;42.664;23.372;2022-07-09T07:27:54;8.97;;;8.07;;
6135;SDS011;24008;42.664;23.372;2022-07-09T07:30:21;9.23;;;8.33;;
6135;SDS011;24008;42.664;23.372;2022-07-09T07:32:48;7.93;;;7.20;;
6135;SDS011;24008;42.664;23.372;2022-07-09T07:35:15;8.40;;;6.73;;
6135;SDS011;24008;42.664;23.372;2022-07-09T07:37:41;7.70;;;7.00;;
6135;SDS011;24008;42.664;23.372;2022-07-09T07:40:10;8.50;;;6.07;;
6135;SDS011;24008;42.664;23.372;2022-07-09T07:42:38;6.73;;;5.83;;
6135;SDS011;24008;42.664;23.372;2022-07-09T07:45:05;7.07;;;6.47;;
6135;SDS011;24008;42.664;23.372;2022-07-09T07:47:33;6.07;;;5.47;;
6135;SDS011;24008;42.664;23.372;2022-07-09T07:50:00;6.20;;;5.60;;
6135;SDS011;24008;42.664;23.372;2022-07-09T07:52:26;6.97;;;6.07;;
6135;SDS011;24008;42.664;23.372;2022-07-09T07:54:53;6.73;;;6.07;;
6135;SDS011;24008;42.664;23.372;2022-07-09T07:57:22;6.93;;;6.00;;
6135;SDS011;24008;42.664;23.372;2022-07-09T07:59:49;6.77;;;6.17;;
6135;SDS011;24008;42.664;23.372;2022-07-09T08:02:16;7.13;;;6.40;;
6135;SDS011;24008;42.664;23.372;2022-07-09T08:04:43;7.13;;;6.40;;
6135;SDS011;24008;42.664;23.372;2022-07-09T08:07:10;7.83;;;7.03;;
6135;SDS011;24008;42.664;23.372;2022-07-09T08:09:37;7.80;;;5.70;;
6135;SDS011;24008;42.664;23.372;2022-07-09T08:12:04;7.13;;;6.47;;
6135;SDS011;24008;42.664;23.372;2022-07-09T08:14:33;6.93;;;6.23;;
6135;SDS011;24008;42.664;23.372;2022-07-09T08:17:00;7.50;;;6.70;;
6135;SDS011;24008;42.664;23.372;2022-07-09T08:19:27;7.53;;;6.80;;
6135;SDS011;24008;42.664;23.372;2022-07-09T08:21:53;6.80;;;6.00;;
6135;SDS011;24008;42.664;23.372;2022-07-09T08:24:21;29.93;;;23.27;;
6135;SDS011;24008;42.664;23.372;2022-07-09T08:26:48;8.70;;;7.90;;
6135;SDS011;24008;42.664;23.372;2022-07-09T08:29:15;28.50;;;24.27;;
6135;SDS011;24008;42.664;23.372;2022-07-09T08:31:43;7.23;;;6.53;;
6135;SDS011;24008;42.664;23.372;2022-07-09T08:34:10;7.53;;;6.07;;
6135;SDS011;24008;42.664;23.372;2022-07-09T08:36:37;6.70;;;6.10;;
6135;SDS011;24008;42.664;23.372;2022-07-09T08:39:04;6.53;;;5.93;;
6135;SDS011;24008;42.664;23.372;2022-07-09T08:41:31;8.13;;;5.97;;
6135;SDS011;24008;42.664;23.372;2022-07-09T08:43:58;6.63;;;6.03;;
6135;SDS011;24008;42.664;23.372;2022-07-09T08:46:28;7.67;;;5.97;;
6135;SDS011;24008;42.664;23.372;2022-07-09T08:48:59;5.93;;;5.43;;
6135;SDS011;24008;42.664;23.372;2022-07-09T08:51:27;6.00;;;5.50;;
6135;SDS011;24008;42.664;23.372;2022-07-09T08:53:56;6.57;;;5.87;;
6135;SDS011;24008;42.664;23.372;2022-07-09T08:56:24;7.13;;;6.27;;
6135;SDS011;24008;42.664;23.372;2022-07-09T08:58:51;7.93;;;5.83;;
6135;SDS011;24008;42.664;23.372;2022-07-09T09:01:18;6.50;;;5.90;;
6135;SDS011;24008;42.664;23.372;2022-07-09T09:03:45;6.40;;;5.80;;
6135;SDS011;24008;42.664;23.372;2022-07-09T09:06:14;8.13;;;6.70;;
6135;SDS011;24008;42.664;23.372;2022-07-09T09:08:41;10.07;;;9.10;;
6135;SDS011;24008;42.664;23.372;2022-07-09T09:11:13;8.07;;;7.27;;
6135;SDS011;24008;42.664;23.372;2022-07-09T09:13:41;22.57;;;17.33;;
6135;SDS011;24008;42.664;23.372;2022-07-09T09:16:09;12.50;;;10.13;;
6135;SDS011;24008;42.664;23.372;2022-07-09T09:18:36;7.80;;;7.10;;
6135;SDS011;24008;42.664;23.372;2022-07-09T09:21:06;7.97;;;7.17;;
6135;SDS011;24008;42.664;23.372;2022-07-09T09:23:42;9.53;;;7.73;;
6135;SDS011;24008;42.664;23.372;2022-07-09T09:26:10;7.70;;;6.97;;
6135;SDS011;24008;42.664;23.372;2022-07-09T09:28:48;7.53;;;6.80;;
6135;SDS011;24008;42.664;23.372;2022-07-09T09:31:19;8.63;;;6.27;;
6135;SDS011;24008;42.664;23.372;2022-07-09T09:33:48;7.17;;;6.57;;
6135;SDS011;24008;42.664;23.372;2022-07-09T09:36:28;8.13;;;6.90;;
6135;SDS011;24008;42.664;23.372;2022-07-09T09:39:08;8.80;;;8.00;;
6135;SDS011;24008;42.664;23.372;2022-07-09T09:41:35;9.10;;;8.20;;
6135;SDS011;24008;42.664;23.372;2022-07-09T09:44:03;8.93;;;8.13;;
6135;SDS011;24008;42.664;23.372;2022-07-09T09:46:34;11.63;;;7.83;;
6135;SDS011;24008;42.664;23.372;2022-07-09T09:49:01;8.93;;;7.53;;
6135;SDS011;24008;42.664;23.372;2022-07-09T09:51:31;8.73;;;7.83;;
6135;SDS011;24008;42.664;23.372;2022-07-09T09:54:01;9.40;;;8.50;;
6135;SDS011;24008;42.664;23.372;2022-07-09T09:56:30;9.00;;;8.20;;
6135;SDS011;24008;42.664;23.372;2022-07-09T09:58:58;8.77;;;7.97;;
6135;SDS011;24008;42.664;23.372;2022-07-09T10:01:27;8.63;;;7.83;;
6135;SDS011;24008;42.664;23.372;2022-07-09T10:03:55;10.23;;;7.50;;
6135;SDS011;24008;42.664;23.372;2022-07-09T10:06:22;7.83;;;6.90;;
6135;SDS011;24008;42.664;23.372;2022-07-09T10:08:50;8.20;;;7.50;;
6135;SDS011;24008;42.664;23.372;2022-07-09T10:11:17;7.43;;;6.83;;
6135;SDS011;24008;42.664;23.372;2022-07-09T10:13:55;7.97;;;7.30;;
6135;SDS011;24008;42.664;23.372;2022-07-09T10:16:33;7.63;;;6.93;;
6135;SDS011;24008;42.664;23.372;2022-07-09T10:19:00;8.33;;;7.53;;
6135;SDS011;24008;42.664;23.372;2022-07-09T10:21:31;10.30;;;7.83;;
6135;SDS011;24008;42.664;23.372;2022-07-09T10:24:02;8.30;;;7.60;;
6135;SDS011;24008;42.664;23.372;2022-07-09T10:29:19;8.10;;;7.30;;
6135;SDS011;24008;42.664;23.372;2022-07-09T10:31:48;7.80;;;6.73;;
6135;SDS011;24008;42.664;23.372;2022-07-09T10:34:19;6.90;;;6.20;;
6135;SDS011;24008;42.664;23.372;2022-07-09T10:36:58;7.77;;;6.40;;
6135;SDS011;24008;42.664;23.372;2022-07-09T10:39:25;6.37;;;5.80;;
6135;SDS011;24008;42.664;23.372;2022-07-09T10:42:00;6.90;;;6.30;;
6135;SDS011;24008;42.664;23.372;2022-07-09T10:44:32;7.23;;;6.63;;
6135;SDS011;24008;42.664;23.372;2022-07-09T10:47:01;6.53;;;5.93;;
6135;SDS011;24008;42.664;23.372;2022-07-09T10:49:29;6.57;;;5.73;;
6135;SDS011;24008;42.664;23.372;2022-07-09T10:51:56;5.73;;;5.23;;
6135;SDS011;24008;42.664;23.372;2022-07-09T10:54:23;5.60;;;5.00;;
6135;SDS011;24008;42.664;23.372;2022-07-09T10:56:51;5.20;;;4.70;;
6135;SDS011;24008;42.664;23.372;2022-07-09T10:59:19;3.77;;;3.47;;
6135;SDS011;24008;42.664;23.372;2022-07-09T11:01:48;4.20;;;3.80;;
6135;SDS011;24008;42.664;23.372;2022-07-09T11:04:27;6.77;;;5.90;;
6135;SDS011;24008;42.664;23.372;2022-07-09T11:06:54;6.30;;;5.13;;
6135;SDS011;24008;42.664;23.372;2022-07-09T11:09:22;7.00;;;4.60;;
6135;SDS011;24008;42.664;23.372;2022-07-09T11:11:51;5.93;;;4.60;;
6135;SDS011;24008;42.664;23.372;2022-07-09T11:14:18;4.23;;;3.83;;
6135;SDS011;24008;42.664;23.372;2022-07-09T11:16:54;4.37;;;3.97;;
6135;SDS011;24008;42.664;23.372;2022-07-09T11:19:21;3.40;;;3.10;;
6135;SDS011;24008;42.664;23.372;2022-07-09T11:21:49;5.43;;;3.67;;
6135;SDS011;24008;42.664;23.372;2022-07-09T11:24:16;4.10;;;3.27;;
6135;SDS011;24008;42.664;23.372;2022-07-09T11:26:44;3.60;;;3.30;;
6135;SDS011;24008;42.664;23.372;2022-07-09T11:29:12;4.40;;;3.30;;
6135;SDS011;24008;42.664;23.372;2022-07-09T11:31:46;5.57;;;4.23;;
6135;SDS011;24008;42.664;23.372;2022-07-09T11:34:15;3.60;;;3.30;;
6135;SDS011;24008;42.664;23.372;2022-07-09T11:36:43;3.40;;;3.10;;
6135;SDS011;24008;42.664;23.372;2022-07-09T11:39:21;3.63;;;3.30;;
6135;SDS011;24008;42.664;23.372;2022-07-09T11:41:49;3.40;;;3.10;;
6135;SDS011;24008;42.664;23.372;2022-07-09T11:44:19;3.63;;;2.88;;
6135;SDS011;24008;42.664;23.372;2022-07-09T11:47:01;4.38;;;2.92;;
6135;SDS011;24008;42.664;23.372;2022-07-09T11:49:34;3.40;;;3.10;;
6135;SDS011;24008;42.664;23.372;2022-07-09T11:52:02;3.23;;;2.70;;
6135;SDS011;24008;42.664;23.372;2022-07-09T11:54:29;5.47;;;2.90;;
6135;SDS011;24008;42.664;23.372;2022-07-09T11:56:56;3.20;;;2.90;;
6135;SDS011;24008;42.664;23.372;2022-07-09T11:59:26;3.50;;;3.20;;
6135;SDS011;24008;42.664;23.372;2022-07-09T12:01:56;4.03;;;3.73;;
6135;SDS011;24008;42.664;23.372;2022-07-09T12:04:24;3.40;;;2.90;;
6135;SDS011;24008;42.664;23.372;2022-07-09T12:06:56;4.73;;;2.90;;
6135;SDS011;24008;42.664;23.372;2022-07-09T12:09:27;3.83;;;3.20;;
6135;SDS011;24008;42.664;23.372;2022-07-09T12:11:59;3.90;;;2.87;;
6135;SDS011;24008;42.664;23.372;2022-07-09T12:14:26;3.17;;;2.87;;
6135;SDS011;24008;42.664;23.372;2022-07-09T12:16:53;3.03;;;2.83;;
6135;SDS011;24008;42.664;23.372;2022-07-09T12:19:20;3.13;;;2.83;;
6135;SDS011;24008;42.664;23.372;2022-07-09T12:21:47;3.63;;;2.50;;
6135;SDS011;24008;42.664;23.372;2022-07-09T12:24:15;3.13;;;2.83;;
6135;SDS011;24008;42.664;23.372;2022-07-09T12:26:42;4.70;;;2.80;;
6135;SDS011;24008;42.664;23.372;2022-07-09T12:29:09;3.47;;;2.77;;
6135;SDS011;24008;42.664;23.372;2022-07-09T12:31:36;3.90;;;2.90;;
6135;SDS011;24008;42.664;23.372;2022-07-09T12:34:03;2.70;;;2.47;;
6135;SDS011;24008;42.664;23.372;2022-07-09T12:36:31;10.27;;;8.30;;
6135;SDS011;24008;42.664;23.372;2022-07-09T12:38:58;3.83;;;3.43;;
6135;SDS011;24008;42.664;23.372;2022-07-09T12:41:26;4.63;;;4.23;;
6135;SDS011;24008;42.664;23.372;2022-07-09T12:43:53;3.23;;;2.93;;
6135;SDS011;24008;42.664;23.372;2022-07-09T12:46:20;3.33;;;3.03;;
6135;SDS011;24008;42.664;23.372;2022-07-09T12:48:47;4.43;;;3.00;;
6135;SDS011;24008;42.664;23.372;2022-07-09T12:51:13;3.00;;;2.70;;
6135;SDS011;24008;42.664;23.372;2022-07-09T12:53:40;4.60;;;3.23;;
6135;SDS011;24008;42.664;23.372;2022-07-09T12:56:07;3.20;;;2.90;;
6135;SDS011;24008;42.664;23.372;2022-07-09T12:58:35;3.37;;;3.07;;
6135;SDS011;24008;42.664;23.372;2022-07-09T13:01:02;3.40;;;3.10;;
6135;SDS011;24008;42.664;23.372;2022-07-09T13:03:29;4.63;;;3.67;;
6135;SDS011;24008;42.664;23.372;2022-07-09T13:05:56;3.60;;;3.30;;
6135;SDS011;24008;42.664;23.372;2022-07-09T13:08:23;5.10;;;3.60;;
6135;SDS011;24008;42.664;23.372;2022-07-09T13:10:50;12.70;;;10.27;;
6135;SDS011;24008;42.664;23.372;2022-07-09T13:13:17;3.73;;;3.43;;
6135;SDS011;24008;42.664;23.372;2022-07-09T13:15:46;3.73;;;2.83;;
6135;SDS011;24008;42.664;23.372;2022-07-09T13:18:13;3.53;;;3.23;;
6135;SDS011;24008;42.664;23.372;2022-07-09T13:20:41;4.00;;;3.03;;
6135;SDS011;24008;42.664;23.372;2022-07-09T13:23:08;4.30;;;3.43;;
6135;SDS011;24008;42.664;23.372;2022-07-09T13:25:35;3.40;;;3.10;;
6135;SDS011;24008;42.664;23.372;2022-07-09T13:28:02;3.40;;;3.10;;
6135;SDS011;24008;42.664;23.372;2022-07-09T13:30:29;3.73;;;3.20;;
6135;SDS011;24008;42.664;23.372;2022-07-09T13:32:57;3.53;;;3.23;;
6135;SDS011;24008;42.664;23.372;2022-07-09T13:35:24;4.10;;;3.00;;
6135;SDS011;24008;42.664;23.372;2022-07-09T13:37:51;3.93;;;2.77;;
6135;SDS011;24008;42.664;23.372;2022-07-09T13:40:18;3.70;;;3.20;;
6135;SDS011;24008;42.664;23.372;2022-07-09T13:42:45;3.43;;;3.07;;
6135;SDS011;24008;42.664;23.372;2022-07-09T13:45:12;3.33;;;3.03;;
6135;SDS011;24008;42.664;23.372;2022-07-09T13:47:39;3.70;;;3.40;;
6135;SDS011;24008;42.664;23.372;2022-07-09T13:50:08;4.00;;;3.60;;
6135;SDS011;24008;42.664;23.372;2022-07-09T13:52:35;4.30;;;3.47;;
6135;SDS011;24008;42.664;23.372;2022-07-09T13:55:02;3.33;;;3.03;;
6135;SDS011;24008;42.664;23.372;2022-07-09T13:57:30;4.53;;;3.60;;
6135;SDS011;24008;42.664;23.372;2022-07-09T13:59:57;3.80;;;3.50;;
6135;SDS011;24008;42.664;23.372;2022-07-09T14:02:24;3.90;;;3.60;;
6135;SDS011;24008;42.664;23.372;2022-07-09T14:04:51;3.63;;;3.33;;
6135;SDS011;24008;42.664;23.372;2022-07-09T14:07:21;5.43;;;3.03;;
6135;SDS011;24008;42.664;23.372;2022-07-09T14:09:48;4.13;;;3.10;;
6135;SDS011;24008;42.664;23.372;2022-07-09T14:12:14;4.60;;;3.30;;
6135;SDS011;24008;42.664;23.372;2022-07-09T14:14:42;4.37;;;3.50;;
6135;SDS011;24008;42.664;23.372;2022-07-09T14:17:10;3.40;;;3.10;;
6135;SDS011;24008;42.664;23.372;2022-07-09T14:19:37;3.67;;;3.33;;
6135;SDS011;24008;42.664;23.372;2022-07-09T14:22:04;5.73;;;4.27;;
6135;SDS011;24008;42.664;23.372;2022-07-09T14:24:32;3.70;;;3.40;;
6135;SDS011;24008;42.664;23.372;2022-07-09T14:26:59;5.93;;;4.73;;
6135;SDS011;24008;42.664;23.372;2022-07-09T14:29:26;3.80;;;3.50;;
6135;SDS011;24008;42.664;23.372;2022-07-09T14:31:53;3.90;;;3.30;;
6135;SDS011;24008;42.664;23.372;2022-07-09T14:34:20;5.30;;;3.83;;
6135;SDS011;24008;42.664;23.372;2022-07-09T14:36:48;4.20;;;3.80;;
6135;SDS011;24008;42.664;23.372;2022-07-09T14:39:15;3.90;;;3.50;;
6135;SDS011;24008;42.664;23.372;2022-07-09T14:41:43;4.70;;;3.63;;
6135;SDS011;24008;42.664;23.372;2022-07-09T14:44:11;6.57;;;3.60;;